createdAt,value
2018-04-18T00:00:49.340Z,0
2018-04-18T00:01:59.509Z,0
2018-04-18T00:03:09.692Z,0
2018-04-18T00:04:19.720Z,0
2018-04-18T00:05:29.867Z,0
2018-04-18T00:06:39.739Z,0
2018-04-18T00:07:49.868Z,0
2018-04-18T00:09:00.013Z,0
2018-04-18T00:10:09.505Z,0
2018-04-18T00:11:19.142Z,0
2018-04-18T00:12:29.268Z,0
2018-04-18T00:13:38.939Z,0
2018-04-18T00:14:49.175Z,0
2018-04-18T00:15:59.328Z,0
2018-04-18T00:17:09.481Z,0
2018-04-18T00:18:19.422Z,0
2018-04-18T00:19:29.657Z,0
2018-04-18T00:20:39.846Z,0
2018-04-18T00:21:49.729Z,0
2018-04-18T00:22:59.663Z,0
2018-04-18T00:24:09.882Z,0
2018-04-18T00:25:20.088Z,0
2018-04-18T00:26:30.358Z,0
2018-04-18T00:27:40.276Z,0
2018-04-18T00:28:50.438Z,0
2018-04-18T00:30:00.577Z,0
2018-04-18T00:31:10.707Z,0
2018-04-18T00:32:20.484Z,0
2018-04-18T00:33:30.777Z,0
2018-04-18T00:34:41.031Z,0
2018-04-18T00:35:51.244Z,0
2018-04-18T00:37:01.381Z,0
2018-04-18T00:38:11.550Z,0
2018-04-18T00:39:21.703Z,0
2018-04-18T00:40:31.880Z,0
2018-04-18T00:41:42.020Z,0
2018-04-18T00:42:52.182Z,0
2018-04-18T00:44:02.306Z,0
2018-04-18T00:45:12.447Z,0
2018-04-18T00:46:22.613Z,0
2018-04-18T00:47:32.797Z,0
2018-04-18T00:48:43.075Z,0
2018-04-18T00:49:53.258Z,0
2018-04-18T00:51:03.161Z,0
2018-04-18T00:52:13.295Z,0
2018-04-18T00:53:23.497Z,0
2018-04-18T00:54:33.714Z,0
2018-04-18T00:55:43.927Z,0
2018-04-18T00:56:54.088Z,0
2018-04-18T00:58:04.236Z,0
2018-04-18T00:59:14.374Z,0
2018-04-18T01:00:24.540Z,0
2018-04-18T01:01:34.712Z,0
2018-04-18T01:02:44.896Z,0
2018-04-18T01:03:55.039Z,0
2018-04-18T01:05:05.234Z,0
2018-04-18T01:06:15.488Z,0
2018-04-18T01:07:25.673Z,0
2018-04-18T01:08:35.853Z,0
2018-04-18T01:09:46.091Z,0
2018-04-18T01:10:56.245Z,0
2018-04-18T01:12:06.113Z,0
2018-04-18T01:13:16.320Z,0
2018-04-18T01:14:26.617Z,0
2018-04-18T01:15:36.871Z,0
2018-04-18T01:16:47.053Z,0
2018-04-18T01:17:57.203Z,0
2018-04-18T01:19:07.384Z,0
2018-04-18T01:20:17.643Z,0
2018-04-18T01:21:27.570Z,0
2018-04-18T01:22:37.740Z,0
2018-04-18T01:23:47.895Z,0
2018-04-18T01:24:58.045Z,0
2018-04-18T01:26:08.247Z,0
2018-04-18T01:27:18.417Z,0
2018-04-18T01:28:29.707Z,0
2018-04-18T01:29:39.859Z,0
2018-04-18T01:30:50.117Z,0
2018-04-18T01:32:00.259Z,0
2018-04-18T01:33:10.055Z,0
2018-04-18T01:34:19.567Z,0
2018-04-18T01:35:29.697Z,0
2018-04-18T01:36:39.835Z,0
2018-04-18T01:37:49.738Z,0
2018-04-18T01:38:59.909Z,0
2018-04-18T01:40:10.079Z,0
2018-04-18T01:41:20.249Z,0
2018-04-18T01:42:30.411Z,0
2018-04-18T01:43:40.550Z,0
2018-04-18T01:44:50.692Z,0
2018-04-18T01:46:00.832Z,0
2018-04-18T01:47:10.960Z,0
2018-04-18T01:48:21.101Z,0
2018-04-18T01:49:31.316Z,0
2018-04-18T01:50:41.502Z,0
2018-04-18T01:51:51.729Z,0
2018-04-18T01:53:01.894Z,0
2018-04-18T01:54:12.091Z,0
2018-04-18T01:55:22.253Z,0
2018-04-18T01:56:32.387Z,0
2018-04-18T01:57:42.519Z,0
2018-04-18T01:58:52.636Z,0
2018-04-18T02:00:02.520Z,0
2018-04-18T02:01:12.409Z,0
2018-04-18T02:02:22.577Z,0
2018-04-18T02:03:32.722Z,0
2018-04-18T02:04:42.848Z,0
2018-04-18T02:05:52.753Z,0
2018-04-18T02:07:02.882Z,0
2018-04-18T02:08:13.007Z,0
2018-04-18T02:09:23.064Z,0
2018-04-18T02:10:33.350Z,0
2018-04-18T02:11:43.527Z,0
2018-04-18T02:12:53.697Z,0
2018-04-18T02:14:03.917Z,0
2018-04-18T02:15:14.094Z,0
2018-04-18T02:16:24.305Z,0
2018-04-18T02:17:34.550Z,0
2018-04-18T02:18:44.405Z,0
2018-04-18T02:19:54.580Z,0
2018-04-18T02:21:04.749Z,0
2018-04-18T02:22:14.616Z,0
2018-04-18T02:23:24.554Z,0
2018-04-18T02:24:34.690Z,0
2018-04-18T02:25:44.846Z,0
2018-04-18T02:26:54.978Z,0
2018-04-18T02:28:05.141Z,0
2018-04-18T02:29:15.385Z,0
2018-04-18T02:30:25.277Z,0
2018-04-18T02:31:35.490Z,0
2018-04-18T02:32:45.628Z,0
2018-04-18T02:33:55.815Z,0
2018-04-18T02:35:06.049Z,0
2018-04-18T02:36:15.931Z,0
2018-04-18T02:37:26.112Z,0
2018-04-18T02:38:36.247Z,0
2018-04-18T02:39:45.894Z,0
2018-04-18T02:40:56.109Z,0
2018-04-18T02:42:06.390Z,0
2018-04-18T02:43:16.557Z,0
2018-04-18T02:44:26.788Z,0
2018-04-18T02:45:37.061Z,0
2018-04-18T02:46:46.952Z,0
2018-04-18T02:47:57.094Z,0
2018-04-18T02:49:07.239Z,0
2018-04-18T02:50:17.488Z,0
2018-04-18T02:51:27.675Z,0
2018-04-18T02:52:37.827Z,0
2018-04-18T02:53:47.999Z,0
2018-04-18T02:54:58.243Z,0
2018-04-18T02:56:08.399Z,0
2018-04-18T02:57:18.561Z,0
2018-04-18T02:58:28.443Z,0
2018-04-18T02:59:38.697Z,0
2018-04-18T03:00:48.899Z,0
2018-04-18T03:01:59.281Z,0
2018-04-18T03:03:09.449Z,0
2018-04-18T03:04:19.362Z,0
2018-04-18T03:05:29.504Z,0
2018-04-18T03:06:39.638Z,0
2018-04-18T03:07:49.822Z,0
2018-04-18T03:08:59.973Z,0
2018-04-18T03:10:10.127Z,0
2018-04-18T03:11:20.370Z,0
2018-04-18T03:12:30.535Z,0
2018-04-18T03:13:40.766Z,0
2018-04-18T03:14:50.978Z,0
2018-04-18T03:16:01.132Z,0
2018-04-18T03:17:11.325Z,0
2018-04-18T03:18:21.475Z,0
2018-04-18T03:19:31.642Z,0
2018-04-18T03:20:41.872Z,0
2018-04-18T03:21:52.048Z,0
2018-04-18T03:23:02.199Z,0
2018-04-18T03:24:12.362Z,0
2018-04-18T03:25:22.559Z,0
2018-04-18T03:26:32.928Z,0
2018-04-18T03:27:43.115Z,0
2018-04-18T03:28:53.391Z,0
2018-04-18T03:30:03.527Z,0
2018-04-18T03:31:13.673Z,0
2018-04-18T03:32:23.962Z,0
2018-04-18T03:33:34.112Z,0
2018-04-18T03:34:44.360Z,0
2018-04-18T03:35:54.605Z,0
2018-04-18T03:37:04.874Z,0
2018-04-18T03:38:15.126Z,0
2018-04-18T03:39:25.311Z,0
2018-04-18T03:40:35.618Z,0
2018-04-18T03:41:45.540Z,0
2018-04-18T03:42:55.670Z,0
2018-04-18T03:44:05.846Z,0
2018-04-18T03:45:15.967Z,0
2018-04-18T03:46:26.187Z,0
2018-04-18T03:47:36.582Z,0
2018-04-18T03:48:46.709Z,0
2018-04-18T03:49:56.850Z,0
2018-04-18T03:51:07.012Z,0
2018-04-18T03:52:17.233Z,0
2018-04-18T03:53:27.362Z,0
2018-04-18T03:54:37.486Z,0
2018-04-18T03:55:47.644Z,0
2018-04-18T03:56:57.826Z,0
2018-04-18T03:58:07.986Z,0
2018-04-18T03:59:18.120Z,0
2018-04-18T04:00:28.291Z,0
2018-04-18T04:01:38.560Z,0
2018-04-18T04:02:48.851Z,0
2018-04-18T04:03:59.006Z,0
2018-04-18T04:05:09.223Z,0
2018-04-18T04:06:19.454Z,5
2018-04-18T04:07:29.669Z,5
2018-04-18T04:08:39.885Z,5
2018-04-18T04:09:50.125Z,5
2018-04-18T04:11:00.252Z,5
2018-04-18T04:12:10.571Z,5
2018-04-18T04:13:20.731Z,5
2018-04-18T04:14:30.952Z,10
2018-04-18T04:15:41.193Z,10
2018-04-18T04:16:51.521Z,10
2018-04-18T04:18:01.708Z,10
2018-04-18T04:19:11.926Z,10
2018-04-18T04:20:22.091Z,10
2018-04-18T04:21:32.316Z,15
2018-04-18T04:22:42.554Z,15
2018-04-18T04:23:52.777Z,15
2018-04-18T04:25:02.939Z,15
2018-04-18T04:26:13.243Z,20
2018-04-18T04:27:23.544Z,20
2018-04-18T04:28:33.732Z,20
2018-04-18T04:29:43.879Z,20
2018-04-18T04:30:54.166Z,25
2018-04-18T04:32:04.329Z,25
2018-04-18T04:33:14.100Z,25
2018-04-18T04:34:24.275Z,30
2018-04-18T04:35:34.494Z,30
2018-04-18T04:36:44.704Z,35
2018-04-18T04:37:54.798Z,35
2018-04-18T04:39:05.085Z,35
2018-04-18T04:40:15.315Z,35
2018-04-18T04:41:25.498Z,35
2018-04-18T04:42:35.701Z,40
2018-04-18T04:43:46.126Z,40
2018-04-18T04:44:56.718Z,40
2018-04-18T04:46:06.905Z,45
2018-04-18T04:47:17.130Z,45
2018-04-18T04:48:27.061Z,45
2018-04-18T04:49:37.247Z,45
2018-04-18T04:50:47.369Z,50
2018-04-18T04:51:57.525Z,50
2018-04-18T04:53:07.683Z,55
2018-04-18T04:54:17.857Z,55
2018-04-18T04:55:28.058Z,60
2018-04-18T04:56:38.454Z,60
2018-04-18T04:57:48.631Z,60
2018-04-18T04:58:58.579Z,65
2018-04-18T05:00:08.710Z,65
2018-04-18T05:01:18.856Z,70
2018-04-18T05:02:29.053Z,65
2018-04-18T05:03:39.337Z,70
2018-04-18T05:04:49.580Z,70
2018-04-18T05:05:59.837Z,70
2018-04-18T05:07:10.091Z,70
2018-04-18T05:08:20.254Z,70
2018-04-18T05:09:30.429Z,70
2018-04-18T05:10:40.628Z,75
2018-04-18T05:11:50.775Z,80
2018-04-18T05:13:01.166Z,80
2018-04-18T05:14:11.420Z,80
2018-04-18T05:15:21.623Z,85
2018-04-18T05:16:31.800Z,90
2018-04-18T05:17:42.061Z,90
2018-04-18T05:18:52.234Z,90
2018-04-18T05:20:02.480Z,95
2018-04-18T05:21:12.819Z,95
2018-04-18T05:22:22.974Z,100
2018-04-18T05:23:33.146Z,105
2018-04-18T05:24:43.057Z,105
2018-04-18T05:25:53.183Z,105
2018-04-18T05:27:03.335Z,105
2018-04-18T05:28:13.497Z,105
2018-04-18T05:29:23.622Z,110
2018-04-18T05:30:33.559Z,110
2018-04-18T05:31:43.725Z,115
2018-04-18T05:32:53.981Z,115
2018-04-18T05:34:04.161Z,115
2018-04-18T05:35:14.351Z,120
2018-04-18T05:36:24.542Z,120
2018-04-18T05:37:34.831Z,120
2018-04-18T05:38:44.985Z,120
2018-04-18T05:39:55.160Z,125
2018-04-18T05:41:05.443Z,125
2018-04-18T05:42:15.746Z,125
2018-04-18T05:43:26.053Z,130
2018-04-18T05:44:36.276Z,130
2018-04-18T05:45:46.466Z,135
2018-04-18T05:46:56.612Z,135
2018-04-18T05:48:06.757Z,135
2018-04-18T05:49:16.993Z,140
2018-04-18T05:50:27.204Z,140
2018-04-18T05:51:37.140Z,140
2018-04-18T05:52:47.312Z,145
2018-04-18T05:53:57.215Z,145
2018-04-18T05:55:06.852Z,145
2018-04-18T05:56:16.717Z,150
2018-04-18T05:57:26.855Z,150
2018-04-18T05:58:36.994Z,150
2018-04-18T05:59:47.164Z,155
2018-04-18T06:00:57.166Z,155
2018-04-18T06:02:07.324Z,155
2018-04-18T06:03:17.479Z,160
2018-04-18T06:04:27.448Z,160
2018-04-18T06:05:37.602Z,160
2018-04-18T06:06:47.753Z,160
2018-04-18T06:07:57.916Z,165
2018-04-18T06:09:08.064Z,165
2018-04-18T06:10:18.215Z,165
2018-04-18T06:11:28.416Z,170
2018-04-18T06:12:38.318Z,170
2018-04-18T06:13:48.456Z,170
2018-04-18T06:14:58.582Z,170
2018-04-18T06:16:08.859Z,175
2018-04-18T06:17:18.997Z,175
2018-04-18T06:18:29.227Z,175
2018-04-18T06:19:39.391Z,175
2018-04-18T06:20:49.570Z,180
2018-04-18T06:21:59.733Z,180
2018-04-18T06:23:09.905Z,180
2018-04-18T06:24:20.032Z,185
2018-04-18T06:25:30.226Z,185
2018-04-18T06:26:40.350Z,185
2018-04-18T06:27:50.242Z,185
2018-04-18T06:29:00.402Z,185
2018-04-18T06:30:10.543Z,185
2018-04-18T06:31:20.698Z,190
2018-04-18T06:32:30.896Z,190
2018-04-18T06:33:40.919Z,195
2018-04-18T06:34:51.155Z,195
2018-04-18T06:36:01.053Z,195
2018-04-18T06:37:11.220Z,200
2018-04-18T06:38:21.409Z,200
2018-04-18T06:39:31.629Z,200
2018-04-18T06:40:41.701Z,205
2018-04-18T06:41:51.849Z,205
2018-04-18T06:43:02.058Z,200
2018-04-18T06:44:11.942Z,205
2018-04-18T06:45:22.088Z,205
2018-04-18T06:46:32.228Z,210
2018-04-18T06:47:42.426Z,210
2018-04-18T06:48:52.564Z,215
2018-04-18T06:50:02.806Z,215
2018-04-18T06:51:13.076Z,215
2018-04-18T06:52:23.239Z,220
2018-04-18T06:53:33.429Z,220
2018-04-18T06:54:43.584Z,220
2018-04-18T06:55:54.776Z,220
2018-04-18T06:57:04.580Z,225
2018-04-18T06:58:14.776Z,225
2018-04-18T06:59:24.958Z,225
2018-04-18T07:00:35.184Z,230
2018-04-18T07:01:45.410Z,230
2018-04-18T07:02:55.593Z,230
2018-04-18T07:04:05.782Z,230
2018-04-18T07:05:15.932Z,235
2018-04-18T07:06:26.117Z,235
2018-04-18T07:07:36.280Z,235
2018-04-18T07:08:46.431Z,240
2018-04-18T07:09:56.605Z,240
2018-04-18T07:11:06.832Z,240
2018-04-18T07:12:17.010Z,245
2018-04-18T07:13:27.312Z,245
2018-04-18T07:14:37.534Z,245
2018-04-18T07:15:47.694Z,250
2018-04-18T07:16:57.941Z,250
2018-04-18T07:18:08.181Z,255
2018-04-18T07:19:18.334Z,255
2018-04-18T07:20:28.578Z,255
2018-04-18T07:21:38.753Z,255
2018-04-18T07:22:48.938Z,260
2018-04-18T07:23:59.114Z,260
2018-04-18T07:25:09.363Z,265
2018-04-18T07:26:20.660Z,270
2018-04-18T07:27:30.883Z,270
2018-04-18T07:28:41.035Z,275
2018-04-18T07:29:51.231Z,280
2018-04-18T07:31:01.435Z,280
2018-04-18T07:32:11.702Z,285
2018-04-18T07:33:21.945Z,290
2018-04-18T07:34:31.765Z,295
2018-04-18T07:35:41.949Z,300
2018-04-18T07:36:52.081Z,300
2018-04-18T07:38:02.252Z,305
2018-04-18T07:39:12.490Z,310
2018-04-18T07:40:22.797Z,315
2018-04-18T07:41:32.984Z,315
2018-04-18T07:42:43.195Z,315
2018-04-18T07:43:53.355Z,320
2018-04-18T07:45:03.566Z,325
2018-04-18T07:46:13.807Z,325
2018-04-18T07:47:23.789Z,330
2018-04-18T07:48:33.926Z,330
2018-04-18T07:49:44.090Z,335
2018-04-18T07:50:54.355Z,335
2018-04-18T07:52:04.562Z,340
2018-04-18T07:53:14.741Z,340
2018-04-18T07:54:25.042Z,345
2018-04-18T07:55:34.965Z,345
2018-04-18T07:56:45.138Z,345
2018-04-18T07:57:55.301Z,350
2018-04-18T07:59:05.533Z,350
2018-04-18T08:00:15.702Z,360
2018-04-18T08:01:25.855Z,360
2018-04-18T08:02:36.001Z,360
2018-04-18T08:03:46.193Z,365
2018-04-18T08:04:56.366Z,365
2018-04-18T08:06:06.519Z,370
2018-04-18T08:07:16.711Z,375
2018-04-18T08:08:26.910Z,380
2018-04-18T08:09:37.072Z,380
2018-04-18T08:10:47.232Z,385
2018-04-18T08:11:57.375Z,385
2018-04-18T08:13:07.544Z,390
2018-04-18T08:14:17.717Z,395
2018-04-18T08:15:28.549Z,390
2018-04-18T08:16:38.816Z,395
2018-04-18T08:17:48.976Z,400
2018-04-18T08:18:59.146Z,410
2018-04-18T08:20:09.335Z,420
2018-04-18T08:21:19.547Z,420
2018-04-18T08:22:29.769Z,430
2018-04-18T08:23:39.954Z,435
2018-04-18T08:24:50.110Z,440
2018-04-18T08:26:00.273Z,450
2018-04-18T08:27:10.449Z,465
2018-04-18T08:28:20.605Z,485
2018-04-18T08:29:30.743Z,500
2018-04-18T08:30:40.541Z,520
2018-04-18T08:31:50.705Z,535
2018-04-18T08:33:00.876Z,560
2018-04-18T08:34:11.254Z,580
2018-04-18T08:35:21.403Z,590
2018-04-18T08:36:31.580Z,610
2018-04-18T08:37:41.751Z,620
2018-04-18T08:38:51.949Z,635
2018-04-18T08:40:02.136Z,680
2018-04-18T08:41:12.300Z,1045
2018-04-18T08:42:22.455Z,1545
2018-04-18T08:43:32.642Z,1840
2018-04-18T08:44:43.053Z,1940
2018-04-18T08:45:53.261Z,1980
2018-04-18T08:47:03.521Z,2020
2018-04-18T08:48:13.717Z,2055
2018-04-18T08:49:23.884Z,2070
2018-04-18T08:50:34.183Z,2080
2018-04-18T08:51:44.351Z,2105
2018-04-18T08:52:54.518Z,2135
2018-04-18T08:54:04.778Z,2200
2018-04-18T08:55:16.985Z,2200
2018-04-18T08:56:27.225Z,2135
2018-04-18T08:57:37.428Z,2160
2018-04-18T08:58:47.685Z,2265
2018-04-18T08:59:57.845Z,2390
2018-04-18T09:01:08.027Z,2515
2018-04-18T09:02:18.457Z,2560
2018-04-18T09:03:28.606Z,2560
2018-04-18T09:04:38.787Z,2480
2018-04-18T09:05:49.039Z,2400
2018-04-18T09:06:59.282Z,2360
2018-04-18T09:08:10.624Z,2345
2018-04-18T09:09:20.821Z,2340
2018-04-18T09:10:31.038Z,2320
2018-04-18T09:11:41.215Z,2320
2018-04-18T09:12:53.248Z,2340
2018-04-18T09:14:03.704Z,2410
2018-04-18T09:15:15.242Z,2545
2018-04-18T09:16:25.285Z,2655
2018-04-18T09:17:40.331Z,2670
2018-04-18T09:18:53.797Z,2610
2018-04-18T09:20:03.975Z,2515
2018-04-18T09:21:14.178Z,2445
2018-04-18T09:22:25.302Z,2390
2018-04-18T09:23:35.461Z,2420
2018-04-18T09:24:47.860Z,2485
2018-04-18T09:25:58.052Z,2505
2018-04-18T09:27:08.238Z,2445
2018-04-18T09:28:18.468Z,2340
2018-04-18T09:29:28.367Z,2260
2018-04-18T09:30:38.563Z,2220
2018-04-18T09:31:48.782Z,2315
2018-04-18T09:32:58.669Z,2380
2018-04-18T09:34:11.295Z,2410
2018-04-18T09:35:21.515Z,2380
2018-04-18T09:36:31.736Z,2370
2018-04-18T09:38:15.381Z,2490
2018-04-18T09:39:25.612Z,2560
2018-04-18T09:40:35.814Z,2570
2018-04-18T09:41:46.014Z,2495
2018-04-18T09:42:56.229Z,2375
2018-04-18T09:44:09.753Z,2305
2018-04-18T09:45:19.943Z,2355
2018-04-18T09:46:30.195Z,2485
2018-04-18T09:47:40.377Z,2555
2018-04-18T09:48:50.565Z,2555
2018-04-18T09:50:00.730Z,2600
2018-04-18T09:51:10.999Z,2585
2018-04-18T09:52:21.295Z,2575
2018-04-18T09:53:31.538Z,2485
2018-04-18T09:54:41.695Z,2420
2018-04-18T09:55:51.878Z,2385
2018-04-18T09:57:02.132Z,2410
2018-04-18T09:58:12.318Z,2375
2018-04-18T09:59:22.559Z,2365
2018-04-18T10:00:32.462Z,2430
2018-04-18T10:01:42.671Z,2470
2018-04-18T10:02:53.059Z,2510
2018-04-18T10:04:03.250Z,2595
2018-04-18T10:05:14.092Z,2810
2018-04-18T10:06:24.436Z,3135
2018-04-18T10:07:34.641Z,2890
2018-04-18T10:08:44.948Z,3110
2018-04-18T10:09:55.351Z,3020
2018-04-18T10:11:05.502Z,2910
2018-04-18T10:12:15.685Z,2750
2018-04-18T10:13:25.862Z,2655
2018-04-18T10:14:36.038Z,2605
2018-04-18T10:15:45.977Z,2430
2018-04-18T10:16:56.182Z,2705
2018-04-18T10:18:06.388Z,2855
2018-04-18T10:19:17.780Z,3025
2018-04-18T10:20:27.629Z,3105
2018-04-18T10:21:41.570Z,3015
2018-04-18T10:22:51.898Z,2845
2018-04-18T10:24:02.231Z,2730
2018-04-18T10:25:12.217Z,2695
2018-04-18T10:30:12.267Z,2950
2018-04-18T10:31:22.499Z,3030
2018-04-18T10:33:45.419Z,2980
2018-04-18T10:34:55.588Z,3030
2018-04-18T10:36:05.845Z,3045
2018-04-18T10:37:16.050Z,3020
2018-04-18T10:38:28.283Z,2995
2018-04-18T10:39:40.142Z,2965
2018-04-18T10:40:52.663Z,2960
2018-04-18T10:42:04.260Z,2990
2018-04-18T10:43:18.416Z,3120
2018-04-18T10:44:28.758Z,3175
2018-04-18T10:45:41.994Z,3250
2018-04-18T10:50:38.261Z,3240
2018-04-18T10:55:37.116Z,3115
2018-04-18T10:58:08.101Z,2820
2018-04-18T10:59:18.278Z,2705
2018-04-18T11:04:17.093Z,3195
2018-04-18T11:05:27.297Z,3115
2018-04-18T11:20:35.871Z,3195
2018-04-18T12:06:12.571Z,2870
2018-04-18T12:07:23.767Z,2815
2018-04-18T12:08:33.958Z,2850
2018-04-18T12:09:44.151Z,2685
2018-04-18T12:10:54.379Z,2580
2018-04-18T12:12:04.547Z,2540
2018-04-18T12:13:14.771Z,2635
2018-04-18T12:14:24.975Z,2675
2018-04-18T12:15:35.314Z,2710
2018-04-18T12:16:45.547Z,2790
2018-04-18T12:17:55.733Z,2875
2018-04-18T12:19:05.906Z,3005
2018-04-18T12:20:15.845Z,3100
2018-04-18T12:21:26.034Z,2970
2018-04-18T12:22:35.607Z,2790
2018-04-18T12:23:45.857Z,2570
2018-04-18T12:24:56.039Z,2380
2018-04-18T12:26:05.947Z,2400
2018-04-18T12:27:16.125Z,2515
2018-04-18T12:28:26.416Z,2545
2018-04-18T12:29:36.627Z,2605
2018-04-18T12:30:46.782Z,2595
2018-04-18T12:31:57.073Z,2635
2018-04-18T12:33:07.056Z,2600
2018-04-18T12:34:17.303Z,2580
2018-04-18T12:35:27.503Z,2545
2018-04-18T12:36:37.805Z,2545
2018-04-18T12:37:48.042Z,2625
2018-04-18T12:38:58.250Z,2665
2018-04-18T12:40:08.452Z,2610
2018-04-18T12:41:18.642Z,2515
2018-04-18T12:42:28.834Z,2455
2018-04-18T12:43:39.094Z,2470
2018-04-18T12:44:49.263Z,2525
2018-04-18T12:45:59.420Z,2620
2018-04-18T12:47:09.659Z,2635
2018-04-18T12:48:19.960Z,2600
2018-04-18T12:49:30.252Z,2460
2018-04-18T12:50:40.446Z,2375
2018-04-18T12:51:50.659Z,2375
2018-04-18T12:53:00.869Z,2470
2018-04-18T12:54:10.796Z,2505
2018-04-18T12:55:20.986Z,2545
2018-04-18T12:56:30.849Z,2560
2018-04-18T12:57:41.536Z,2515
2018-04-18T12:58:51.767Z,2470
2018-04-18T13:00:01.960Z,2480
2018-04-18T13:01:13.091Z,2445
2018-04-18T13:02:23.280Z,2475
2018-04-18T13:03:33.524Z,2470
2018-04-18T13:04:43.792Z,2380
2018-04-18T13:05:53.996Z,2365
2018-04-18T13:07:04.199Z,2300
2018-04-18T13:08:14.392Z,2305
2018-04-18T13:09:24.617Z,2385
2018-04-18T13:10:34.816Z,2425
2018-04-18T13:11:44.817Z,2460
2018-04-18T13:12:55.080Z,2450
2018-04-18T13:14:05.376Z,2415
2018-04-18T13:15:15.645Z,2385
2018-04-18T13:16:25.817Z,2320
2018-04-18T13:17:36.093Z,2320
2018-04-18T13:18:46.301Z,2350
2018-04-18T13:19:56.544Z,2380
2018-04-18T13:21:06.737Z,2390
2018-04-18T13:22:16.947Z,2320
2018-04-18T13:23:27.242Z,2260
2018-04-18T13:24:37.448Z,2150
2018-04-18T13:25:47.699Z,2135
2018-04-18T13:26:57.921Z,2205
2018-04-18T13:28:08.099Z,2245
2018-04-18T13:29:18.304Z,2220
2018-04-18T13:30:28.484Z,2165
2018-04-18T13:31:38.694Z,2195
2018-04-18T13:32:48.861Z,2220
2018-04-18T13:33:59.111Z,2295
2018-04-18T13:35:09.373Z,2295
2018-04-18T13:36:19.647Z,2285
2018-04-18T13:37:29.847Z,2315
2018-04-18T13:38:40.084Z,2155
2018-04-18T13:39:50.289Z,2040
2018-04-18T13:41:00.492Z,2040
2018-04-18T13:42:10.719Z,2100
2018-04-18T13:43:20.895Z,2180
2018-04-18T13:44:30.852Z,2210
2018-04-18T13:45:41.065Z,2125
2018-04-18T13:46:51.005Z,2025
2018-04-18T13:48:01.446Z,1930
2018-04-18T13:49:11.740Z,1950
2018-04-18T13:50:22.240Z,1990
2018-04-18T13:51:32.454Z,1995
2018-04-18T13:52:42.689Z,2070
2018-04-18T13:53:53.147Z,2115
2018-04-18T13:55:04.132Z,2145
2018-04-18T13:56:14.553Z,2155
2018-04-18T13:57:24.977Z,2175
2018-04-18T13:58:35.393Z,2070
2018-04-18T13:59:45.591Z,2020
2018-04-18T14:00:55.887Z,1950
2018-04-18T14:02:06.074Z,1875
2018-04-18T14:03:16.521Z,1860
2018-04-18T14:04:26.799Z,1940
2018-04-18T14:05:37.061Z,2045
2018-04-18T14:06:47.244Z,2175
2018-04-18T14:07:57.341Z,2215
2018-04-18T14:09:07.531Z,2110
2018-04-18T14:10:17.756Z,1915
2018-04-18T14:11:27.939Z,1780
2018-04-18T14:12:38.121Z,1830
2018-04-18T14:13:48.302Z,1880
2018-04-18T14:14:58.477Z,2015
2018-04-18T14:16:08.676Z,2145
2018-04-18T14:17:18.873Z,2160
2018-04-18T14:18:29.039Z,2120
2018-04-18T14:19:39.284Z,1985
2018-04-18T14:20:49.310Z,1895
2018-04-18T14:21:59.569Z,1860
2018-04-18T14:23:09.797Z,1825
2018-04-18T14:24:20.063Z,1825
2018-04-18T14:25:30.349Z,1775
2018-04-18T14:26:40.718Z,1725
2018-04-18T14:27:50.998Z,1610
2018-04-18T14:29:01.237Z,1610
2018-04-18T14:30:11.435Z,1650
2018-04-18T14:31:21.361Z,1700
2018-04-18T14:32:31.652Z,1735
2018-04-18T14:33:41.896Z,1715
2018-04-18T14:34:52.247Z,1560
2018-04-18T14:36:02.503Z,1550
2018-04-18T14:37:12.691Z,1520
2018-04-18T14:38:22.912Z,1510
2018-04-18T14:39:33.143Z,1570
2018-04-18T14:40:43.322Z,1565
2018-04-18T14:41:53.511Z,1540
2018-04-18T14:43:03.723Z,1510
2018-04-18T14:44:13.941Z,1510
2018-04-18T14:45:24.139Z,1305
2018-04-18T14:46:34.458Z,1315
2018-04-18T14:47:44.658Z,1365
2018-04-18T14:48:54.879Z,1410
2018-04-18T14:50:05.061Z,1500
2018-04-18T14:51:15.313Z,1560
2018-04-18T14:52:25.495Z,1470
2018-04-18T14:53:35.695Z,1340
2018-04-18T14:54:45.922Z,1365
2018-04-18T14:55:56.140Z,1380
2018-04-18T14:57:06.401Z,1430
2018-04-18T14:58:16.623Z,1395
2018-04-18T14:59:26.852Z,1250
2018-04-18T15:00:36.795Z,1250
2018-04-18T15:01:46.963Z,1335
2018-04-18T15:02:57.181Z,1460
2018-04-18T15:04:07.441Z,1520
2018-04-18T15:05:17.740Z,1330
2018-04-18T15:06:28.052Z,1310
2018-04-18T15:07:38.331Z,1335
2018-04-18T15:08:48.626Z,1200
2018-04-18T15:09:58.844Z,1260
2018-04-18T15:11:09.098Z,1280
2018-04-18T15:12:19.297Z,1210
2018-04-18T15:13:29.529Z,1145
2018-04-18T15:14:39.768Z,1130
2018-04-18T15:15:49.967Z,1210
2018-04-18T15:17:00.212Z,1195
2018-04-18T15:18:10.423Z,1175
2018-04-18T15:19:20.698Z,1085
2018-04-18T15:20:30.946Z,1205
2018-04-18T15:21:41.213Z,1195
2018-04-18T15:22:51.770Z,1080
2018-04-18T15:24:02.023Z,1105
2018-04-18T15:25:12.254Z,1160
2018-04-18T15:26:22.449Z,1195
2018-04-18T15:27:32.752Z,1125
2018-04-18T15:28:43.309Z,1085
2018-04-18T15:29:53.548Z,1050
2018-04-18T15:31:03.734Z,1035
2018-04-18T15:32:13.992Z,1095
2018-04-18T15:33:24.257Z,1150
2018-04-18T15:34:34.509Z,1105
2018-04-18T15:35:44.764Z,1090
2018-04-18T15:36:55.038Z,1035
2018-04-18T15:38:05.344Z,990
2018-04-18T15:39:15.545Z,895
2018-04-18T15:40:25.791Z,925
2018-04-18T15:41:35.976Z,905
2018-04-18T15:42:46.010Z,860
2018-04-18T15:43:56.200Z,675
2018-04-18T15:45:06.445Z,495
2018-04-18T15:46:16.724Z,380
2018-04-18T15:47:27.003Z,360
2018-04-18T15:48:37.243Z,345
2018-04-18T15:49:47.481Z,330
2018-04-18T15:50:57.700Z,320
2018-04-18T15:52:07.928Z,305
2018-04-18T15:53:18.017Z,300
2018-04-18T15:54:28.226Z,285
2018-04-18T15:55:38.463Z,290
2018-04-18T15:56:48.703Z,280
2018-04-18T15:57:58.926Z,275
2018-04-18T15:59:08.780Z,270
2018-04-18T16:00:18.951Z,265
2018-04-18T16:01:29.192Z,265
2018-04-18T16:02:39.029Z,260
2018-04-18T16:03:49.233Z,255
2018-04-18T16:04:59.450Z,255
2018-04-18T16:06:09.404Z,260
2018-04-18T16:07:19.634Z,260
2018-04-18T16:08:29.900Z,260
2018-04-18T16:09:40.245Z,255
2018-04-18T16:10:50.470Z,250
2018-04-18T16:12:00.689Z,245
2018-04-18T16:13:10.872Z,245
2018-04-18T16:14:21.075Z,245
2018-04-18T16:15:31.295Z,245
2018-04-18T16:16:41.516Z,240
2018-04-18T16:17:51.469Z,240
2018-04-18T16:19:01.453Z,235
2018-04-18T16:20:11.737Z,230
2018-04-18T16:21:21.931Z,230
2018-04-18T16:22:32.157Z,225
2018-04-18T16:23:42.419Z,215
2018-04-18T16:24:52.690Z,210
2018-04-18T16:26:02.916Z,205
2018-04-18T16:27:13.104Z,200
2018-04-18T16:28:23.332Z,195
2018-04-18T16:29:33.555Z,190
2018-04-18T16:30:43.773Z,190
2018-04-18T16:31:53.609Z,185
2018-04-18T16:33:03.829Z,175
2018-04-18T16:34:14.060Z,165
2018-04-18T16:35:24.272Z,160
2018-04-18T16:36:34.520Z,165
2018-04-18T16:37:44.821Z,165
2018-04-18T16:38:55.252Z,160
2018-04-18T16:40:05.637Z,160
2018-04-18T16:41:15.853Z,150
2018-04-18T16:42:26.149Z,150
2018-04-18T16:43:36.425Z,155
2018-04-18T16:44:46.710Z,150
2018-04-18T16:45:57.024Z,160
2018-04-18T16:47:07.297Z,155
2018-04-18T16:48:17.525Z,155
2018-04-18T16:49:28.885Z,150
2018-04-18T16:50:41.606Z,150
2018-04-18T16:51:52.820Z,145
2018-04-18T16:53:36.847Z,140
2018-04-18T16:54:48.721Z,135
2018-04-18T16:56:00.627Z,130
2018-04-18T16:57:13.123Z,130
2018-04-18T16:58:25.476Z,130
2018-04-18T16:59:37.289Z,130
2018-04-18T17:00:50.718Z,125
2018-04-18T17:02:02.134Z,125
2018-04-18T17:03:13.512Z,125
2018-04-18T17:04:40.787Z,120
2018-04-18T17:05:51.266Z,120
2018-04-18T17:07:01.164Z,115
2018-04-18T17:08:11.416Z,115
2018-04-18T17:09:21.750Z,110
2018-04-18T17:10:32.270Z,105
2018-04-18T17:11:42.491Z,100
2018-04-18T17:12:52.862Z,100
2018-04-18T17:14:03.113Z,100
2018-04-18T17:15:13.444Z,95
2018-04-18T17:16:23.428Z,100
2018-04-18T17:17:33.717Z,90
2018-04-18T17:18:44.144Z,90
2018-04-18T17:19:54.494Z,90
2018-04-18T17:21:04.761Z,85
2018-04-18T17:22:15.045Z,85
2018-04-18T17:23:25.223Z,80
2018-04-18T17:24:35.461Z,80
2018-04-18T17:25:45.670Z,75
2018-04-18T17:26:55.984Z,75
2018-04-18T17:28:06.203Z,75
2018-04-18T17:29:16.471Z,75
2018-04-18T17:30:26.712Z,70
2018-04-18T17:31:36.611Z,70
2018-04-18T17:32:46.597Z,65
2018-04-18T17:33:56.927Z,65